sensor_id;sensor_type;location;lat;lon;timestamp;temperature;humidity
14761;DHT22;7472;45.396;5.272;2024-02-04T03:44:15;3.90;99.90
14761;DHT22;7472;45.396;5.272;2024-02-04T03:46:42;3.70;99.90
14761;DHT22;7472;45.396;5.272;2024-02-04T03:54:05;3.70;99.90
14761;DHT22;7472;45.396;5.272;2024-02-04T03:59:00;3.60;99.90
14761;DHT22;7472;45.396;5.272;2024-02-04T04:01:27;3.50;99.90
14761;DHT22;7472;45.396;5.272;2024-02-04T04:03:54;3.50;99.90
14761;DHT22;7472;45.396;5.272;2024-02-04T04:06:21;3.60;99.90
14761;DHT22;7472;45.396;5.272;2024-02-04T04:08:50;3.60;99.90
14761;DHT22;7472;45.396;5.272;2024-02-04T04:13:45;3.60;99.90
14761;DHT22;7472;45.396;5.272;2024-02-04T04:30:58;3.30;99.90
14761;DHT22;7472;45.396;5.272;2024-02-04T04:33:25;3.30;99.90
14761;DHT22;7472;45.396;5.272;2024-02-04T04:35:52;3.20;99.90
14761;DHT22;7472;45.396;5.272;2024-02-04T04:38:19;3.20;99.90
14761;DHT22;7472;45.396;5.272;2024-02-04T04:40:47;3.20;99.90
14761;DHT22;7472;45.396;5.272;2024-02-04T04:43:15;3.20;99.90
14761;DHT22;7472;45.396;5.272;2024-02-04T04:45:42;3.10;99.90
14761;DHT22;7472;45.396;5.272;2024-02-04T04:50:37;3.10;99.90
14761;DHT22;7472;45.396;5.272;2024-02-04T04:53:04;3.10;99.90
14761;DHT22;7472;45.396;5.272;2024-02-04T04:55:31;3.10;99.90
14761;DHT22;7472;45.396;5.272;2024-02-04T04:57:58;3.10;99.90
14761;DHT22;7472;45.396;5.272;2024-02-04T05:00:27;3.10;99.90
14761;DHT22;7472;45.396;5.272;2024-02-04T05:02:54;3.10;99.90
14761;DHT22;7472;45.396;5.272;2024-02-04T05:05:21;3.40;99.90
14761;DHT22;7472;45.396;5.272;2024-02-04T05:07:48;2.80;99.90
14761;DHT22;7472;45.396;5.272;2024-02-04T05:10:15;3.20;99.90
14761;DHT22;7472;45.396;5.272;2024-02-04T05:12:42;3.50;99.90
14761;DHT22;7472;45.396;5.272;2024-02-04T05:22:33;3.50;99.90
14761;DHT22;7472;45.396;5.272;2024-02-04T05:25:01;3.40;99.90
14761;DHT22;7472;45.396;5.272;2024-02-04T05:27:28;3.40;99.90
14761;DHT22;7472;45.396;5.272;2024-02-04T05:29:55;3.40;99.90
14761;DHT22;7472;45.396;5.272;2024-02-04T05:32:22;3.40;99.90
14761;DHT22;7472;45.396;5.272;2024-02-04T05:34:51;3.40;99.90
14761;DHT22;7472;45.396;5.272;2024-02-04T05:42:13;3.30;99.90
14761;DHT22;7472;45.396;5.272;2024-02-04T05:44:40;3.40;99.90
14761;DHT22;7472;45.396;5.272;2024-02-04T05:54:36;3.30;99.90
14761;DHT22;7472;45.396;5.272;2024-02-04T05:57:04;3.30;99.90
14761;DHT22;7472;45.396;5.272;2024-02-04T05:59:31;3.30;99.90
14761;DHT22;7472;45.396;5.272;2024-02-04T06:01:58;3.40;99.90
14761;DHT22;7472;45.396;5.272;2024-02-04T06:04:25;3.30;99.90
14761;DHT22;7472;45.396;5.272;2024-02-04T06:09:23;3.30;99.90
14761;DHT22;7472;45.396;5.272;2024-02-04T06:11:50;3.20;99.90
14761;DHT22;7472;45.396;5.272;2024-02-04T06:14:18;3.30;99.90
14761;DHT22;7472;45.396;5.272;2024-02-04T06:16:45;3.30;99.90
14761;DHT22;7472;45.396;5.272;2024-02-04T06:19:12;3.30;99.90
14761;DHT22;7472;45.396;5.272;2024-02-04T06:21:40;3.30;99.90
14761;DHT22;7472;45.396;5.272;2024-02-04T06:24:07;3.40;99.90
14761;DHT22;7472;45.396;5.272;2024-02-04T06:26:39;3.40;99.90
14761;DHT22;7472;45.396;5.272;2024-02-04T06:29:06;3.50;99.90
14761;DHT22;7472;45.396;5.272;2024-02-04T06:31:33;3.40;99.90
14761;DHT22;7472;45.396;5.272;2024-02-04T06:34:01;3.40;99.90
14761;DHT22;7472;45.396;5.272;2024-02-04T06:36:28;3.40;99.90
14761;DHT22;7472;45.396;5.272;2024-02-04T06:38:55;3.40;99.90
14761;DHT22;7472;45.396;5.272;2024-02-04T06:41:22;3.30;99.90
14761;DHT22;7472;45.396;5.272;2024-02-04T06:43:50;3.40;99.90
14761;DHT22;7472;45.396;5.272;2024-02-04T06:46:24;3.40;99.90
14761;DHT22;7472;45.396;5.272;2024-02-04T06:48:52;3.40;99.90
14761;DHT22;7472;45.396;5.272;2024-02-04T06:51:19;3.50;99.90
14761;DHT22;7472;45.396;5.272;2024-02-04T06:53:46;4.50;99.90
14761;DHT22;7472;45.396;5.272;2024-02-04T06:56:14;3.50;99.90
14761;DHT22;7472;45.396;5.272;2024-02-04T06:58:41;3.50;99.90
14761;DHT22;7472;45.396;5.272;2024-02-04T07:01:10;3.60;99.90
14761;DHT22;7472;45.396;5.272;2024-02-04T07:25:47;3.70;99.90
14761;DHT22;7472;45.396;5.272;2024-02-04T07:28:14;3.60;99.90
14761;DHT22;7472;45.396;5.272;2024-02-04T07:30:41;3.60;99.90
14761;DHT22;7472;45.396;5.272;2024-02-04T07:33:08;3.60;99.90
14761;DHT22;7472;45.396;5.272;2024-02-04T07:35:37;3.60;99.90
14761;DHT22;7472;45.396;5.272;2024-02-04T07:38:04;3.50;99.90
14761;DHT22;7472;45.396;5.272;2024-02-04T07:40:31;3.50;99.90
14761;DHT22;7472;45.396;5.272;2024-02-04T07:42:58;3.60;99.90
14761;DHT22;7472;45.396;5.272;2024-02-04T07:47:52;3.50;99.90
14761;DHT22;7472;45.396;5.272;2024-02-04T08:32:13;3.90;99.90
14761;DHT22;7472;45.396;5.272;2024-02-04T08:42:07;3.60;99.90
14761;DHT22;7472;45.396;5.272;2024-02-04T09:16:38;4.00;99.90
14761;DHT22;7472;45.396;5.272;2024-02-04T09:19:06;4.00;99.90
14761;DHT22;7472;45.396;5.272;2024-02-04T09:21:33;3.90;99.90
14761;DHT22;7472;45.396;5.272;2024-02-04T09:24:00;3.90;99.90
14761;DHT22;7472;45.396;5.272;2024-02-04T09:26:27;3.90;99.90
14761;DHT22;7472;45.396;5.272;2024-02-04T09:28:55;4.00;99.90
14761;DHT22;7472;45.396;5.272;2024-02-04T09:31:22;4.00;99.90
14761;DHT22;7472;45.396;5.272;2024-02-04T09:33:49;4.10;99.90
14761;DHT22;7472;45.396;5.272;2024-02-04T09:36:17;4.10;99.90
14761;DHT22;7472;45.396;5.272;2024-02-04T09:38:44;4.10;99.90
14761;DHT22;7472;45.396;5.272;2024-02-04T09:41:12;3.90;99.90
14761;DHT22;7472;45.396;5.272;2024-02-04T09:46:07;4.10;99.90
14761;DHT22;7472;45.396;5.272;2024-02-04T09:48:36;4.10;99.90
14761;DHT22;7472;45.396;5.272;2024-02-04T09:51:05;4.10;99.90
14761;DHT22;7472;45.396;5.272;2024-02-04T09:53:35;4.10;99.90
14761;DHT22;7472;45.396;5.272;2024-02-04T09:56:04;4.10;99.90
14761;DHT22;7472;45.396;5.272;2024-02-04T09:58:33;4.00;99.90
14761;DHT22;7472;45.396;5.272;2024-02-04T10:01:01;4.00;99.90
14761;DHT22;7472;45.396;5.272;2024-02-04T10:03:29;3.90;99.90
14761;DHT22;7472;45.396;5.272;2024-02-04T10:05:56;4.00;99.90
14761;DHT22;7472;45.396;5.272;2024-02-04T10:10:52;4.00;99.90
14761;DHT22;7472;45.396;5.272;2024-02-04T10:13:20;4.10;99.90
14761;DHT22;7472;45.396;5.272;2024-02-04T10:18:17;4.10;99.90
14761;DHT22;7472;45.396;5.272;2024-02-04T10:20:44;4.10;99.90
14761;DHT22;7472;45.396;5.272;2024-02-04T10:23:11;4.10;99.90
14761;DHT22;7472;45.396;5.272;2024-02-04T10:28:08;4.20;99.90
14761;DHT22;7472;45.396;5.272;2024-02-04T10:30:38;4.20;99.90
14761;DHT22;7472;45.396;5.272;2024-02-04T10:33:05;4.30;99.90
14761;DHT22;7472;45.396;5.272;2024-02-04T10:35:32;4.30;99.90
14761;DHT22;7472;45.396;5.272;2024-02-04T10:37:59;4.30;99.90
14761;DHT22;7472;45.396;5.272;2024-02-04T10:40:26;4.30;99.90
14761;DHT22;7472;45.396;5.272;2024-02-04T10:42:57;4.40;99.90
14761;DHT22;7472;45.396;5.272;2024-02-04T10:45:30;4.30;99.90
14761;DHT22;7472;45.396;5.272;2024-02-04T10:48:01;4.30;99.90
14761;DHT22;7472;45.396;5.272;2024-02-04T10:50:30;4.30;99.90
14761;DHT22;7472;45.396;5.272;2024-02-04T10:53:03;4.40;99.90
14761;DHT22;7472;45.396;5.272;2024-02-04T10:55:35;4.50;99.90
14761;DHT22;7472;45.396;5.272;2024-02-04T10:58:04;4.60;99.90
14761;DHT22;7472;45.396;5.272;2024-02-04T11:00:40;4.50;99.90
14761;DHT22;7472;45.396;5.272;2024-02-04T11:03:07;4.80;99.90
14761;DHT22;7472;45.396;5.272;2024-02-04T11:05:36;4.60;99.90
14761;DHT22;7472;45.396;5.272;2024-02-04T11:08:05;4.60;99.90
14761;DHT22;7472;45.396;5.272;2024-02-04T11:10:32;4.60;99.90
14761;DHT22;7472;45.396;5.272;2024-02-04T11:13:00;4.60;99.90
14761;DHT22;7472;45.396;5.272;2024-02-04T11:15:34;4.70;99.90
14761;DHT22;7472;45.396;5.272;2024-02-04T11:18:24;4.70;99.90
14761;DHT22;7472;45.396;5.272;2024-02-04T11:21:19;4.80;99.90
14761;DHT22;7472;45.396;5.272;2024-02-04T11:23:59;4.70;99.90
14761;DHT22;7472;45.396;5.272;2024-02-04T11:58:47;4.90;99.90
14761;DHT22;7472;45.396;5.272;2024-02-04T12:01:14;4.90;99.90
14761;DHT22;7472;45.396;5.272;2024-02-04T12:03:41;4.90;99.90
14761;DHT22;7472;45.396;5.272;2024-02-04T12:06:09;4.90;99.90
14761;DHT22;7472;45.396;5.272;2024-02-04T12:08:42;4.90;99.90
14761;DHT22;7472;45.396;5.272;2024-02-04T12:11:10;4.80;99.90
14761;DHT22;7472;45.396;5.272;2024-02-04T13:17:56;4.70;99.90
14761;DHT22;7472;45.396;5.272;2024-02-04T13:22:52;4.70;99.90
14761;DHT22;7472;45.396;5.272;2024-02-04T13:27:50;5.00;99.90
14761;DHT22;7472;45.396;5.272;2024-02-04T13:30:17;5.20;99.90
14761;DHT22;7472;45.396;5.272;2024-02-04T13:52:41;5.00;99.90
14761;DHT22;7472;45.396;5.272;2024-02-04T13:55:08;5.30;99.90
14761;DHT22;7472;45.396;5.272;2024-02-04T13:57:36;5.20;99.90
14761;DHT22;7472;45.396;5.272;2024-02-04T14:07:29;5.30;99.90
14761;DHT22;7472;45.396;5.272;2024-02-04T14:09:58;5.30;99.90
14761;DHT22;7472;45.396;5.272;2024-02-04T14:12:25;5.20;99.90
14761;DHT22;7472;45.396;5.272;2024-02-04T14:15:01;5.20;99.90
14761;DHT22;7472;45.396;5.272;2024-02-04T14:27:38;5.40;99.90
14761;DHT22;7472;45.396;5.272;2024-02-04T14:30:06;5.30;99.90
14761;DHT22;7472;45.396;5.272;2024-02-04T14:32:33;5.20;99.90
14761;DHT22;7472;45.396;5.272;2024-02-04T14:35:00;5.20;99.90
14761;DHT22;7472;45.396;5.272;2024-02-04T14:52:21;5.50;99.90
14761;DHT22;7472;45.396;5.272;2024-02-04T14:54:48;5.40;99.90
14761;DHT22;7472;45.396;5.272;2024-02-04T14:57:16;5.40;99.90
14761;DHT22;7472;45.396;5.272;2024-02-04T14:59:44;5.40;99.90
14761;DHT22;7472;45.396;5.272;2024-02-04T15:02:12;5.40;99.90
14761;DHT22;7472;45.396;5.272;2024-02-04T15:04:39;5.30;99.90
14761;DHT22;7472;45.396;5.272;2024-02-04T15:07:06;5.30;99.90
14761;DHT22;7472;45.396;5.272;2024-02-04T15:09:34;5.40;99.90
14761;DHT22;7472;45.396;5.272;2024-02-04T15:12:02;5.30;99.90
14761;DHT22;7472;45.396;5.272;2024-02-04T15:14:30;5.20;99.90
14761;DHT22;7472;45.396;5.272;2024-02-04T15:16:59;5.20;99.90
14761;DHT22;7472;45.396;5.272;2024-02-04T15:19:29;5.20;99.90
14761;DHT22;7472;45.396;5.272;2024-02-04T15:21:58;5.30;99.90
14761;DHT22;7472;45.396;5.272;2024-02-04T15:24:26;5.30;99.90
14761;DHT22;7472;45.396;5.272;2024-02-04T15:26:54;5.30;99.90
14761;DHT22;7472;45.396;5.272;2024-02-04T15:29:22;5.30;99.90
14761;DHT22;7472;45.396;5.272;2024-02-04T15:56:40;5.00;99.90
14761;DHT22;7472;45.396;5.272;2024-02-04T15:59:09;5.00;99.90
14761;DHT22;7472;45.396;5.272;2024-02-04T16:01:39;4.90;99.90
14761;DHT22;7472;45.396;5.272;2024-02-04T16:04:07;5.00;99.90
14761;DHT22;7472;45.396;5.272;2024-02-04T16:06:35;4.90;99.90
14761;DHT22;7472;45.396;5.272;2024-02-04T16:09:07;4.90;99.90
14761;DHT22;7472;45.396;5.272;2024-02-04T16:11:42;4.80;99.90
14761;DHT22;7472;45.396;5.272;2024-02-04T16:14:12;4.60;99.90
14761;DHT22;7472;45.396;5.272;2024-02-04T16:16:47;4.50;99.90
14761;DHT22;7472;45.396;5.272;2024-02-04T16:19:20;4.50;99.90
14761;DHT22;7472;45.396;5.272;2024-02-04T16:21:50;4.50;99.90
14761;DHT22;7472;45.396;5.272;2024-02-04T16:24:21;4.50;99.90
14761;DHT22;7472;45.396;5.272;2024-02-04T16:26:49;4.60;99.90
14761;DHT22;7472;45.396;5.272;2024-02-04T16:29:16;4.60;99.90
14761;DHT22;7472;45.396;5.272;2024-02-04T16:31:43;4.60;99.90
14761;DHT22;7472;45.396;5.272;2024-02-04T21:46:16;3.90;99.90
14761;DHT22;7472;45.396;5.272;2024-02-04T21:48:45;3.90;99.90
14761;DHT22;7472;45.396;5.272;2024-02-04T21:51:12;3.90;99.90
14761;DHT22;7472;45.396;5.272;2024-02-04T22:03:29;3.50;99.90
14761;DHT22;7472;45.396;5.272;2024-02-04T22:08:25;3.30;99.90
14761;DHT22;7472;45.396;5.272;2024-02-04T22:15:46;3.40;99.90
14761;DHT22;7472;45.396;5.272;2024-02-04T22:18:13;3.40;99.90
14761;DHT22;7472;45.396;5.272;2024-02-04T22:20:40;3.30;99.90
14761;DHT22;7472;45.396;5.272;2024-02-04T22:23:09;3.20;99.90
14761;DHT22;7472;45.396;5.272;2024-02-04T22:25:40;3.20;99.90
14761;DHT22;7472;45.396;5.272;2024-02-04T22:28:07;3.20;99.90
14761;DHT22;7472;45.396;5.272;2024-02-04T22:30:34;3.20;99.90
14761;DHT22;7472;45.396;5.272;2024-02-04T22:33:01;3.20;99.90
14761;DHT22;7472;45.396;5.272;2024-02-04T22:35:28;3.20;99.90
14761;DHT22;7472;45.396;5.272;2024-02-04T22:37:55;3.10;99.90
14761;DHT22;7472;45.396;5.272;2024-02-04T22:40:24;3.10;99.90
14761;DHT22;7472;45.396;5.272;2024-02-04T22:42:51;3.10;99.90
14761;DHT22;7472;45.396;5.272;2024-02-04T22:45:18;3.10;99.90
14761;DHT22;7472;45.396;5.272;2024-02-04T22:47:45;3.10;99.90
14761;DHT22;7472;45.396;5.272;2024-02-04T22:52:43;3.10;99.90
14761;DHT22;7472;45.396;5.272;2024-02-04T22:55:10;3.00;99.90
14761;DHT22;7472;45.396;5.272;2024-02-04T22:57:39;3.20;99.90
14761;DHT22;7472;45.396;5.272;2024-02-04T23:00:07;3.10;99.90
14761;DHT22;7472;45.396;5.272;2024-02-04T23:02:37;3.10;99.90
14761;DHT22;7472;45.396;5.272;2024-02-04T23:17:28;3.50;99.90
14761;DHT22;7472;45.396;5.272;2024-02-04T23:19:55;3.50;99.90
14761;DHT22;7472;45.396;5.272;2024-02-04T23:22:22;3.30;99.90
14761;DHT22;7472;45.396;5.272;2024-02-04T23:24:49;3.30;99.90
